Detalii statie SOPEMA [00001CFB]

Toti senzorii

Date Temperatura solului [C]Precipitatii [mm]Voltaj baterie [mV]Leaf Wetness [Min]HC Air temperature [C]HC Relative humidity [%]Punctul de roua [C]
medieminmaxsumaultimatimpmedieminmaxmediemediemin
2019-02-21 00:00:00 0 6884 6.07 5.93 6.17 0 0 0
2019-02-21 01:00:00 0 6874 5.39 5.12 5.89 0 0 0
2019-02-21 02:00:00 0 6874 4.01 3.63 4.9 0 0 0
2019-02-21 03:00:00 0 6884 3.54 3.29 3.84 0 0 0
2019-02-21 04:00:00 0 6864 3.7 2.49 4.34 0 0 0
2019-02-21 05:00:00 0 6854 2 1.08 2.83 0 0 0
2019-02-21 06:00:00 0 6844 -0.43 -1.32 0.96 0 0 0
2019-02-21 07:00:00 0 6834 -1.22 -2.22 -0.17 0 0 0
2019-02-21 08:00:00 0 6914 -1.53 -2.2 -0.2 0 0 0
2019-02-21 09:00:00 0 7236 2.28 0.36 4.28 0 0 0
2019-02-21 10:00:00 0 7254 7.03 4.55 9.27 0 0 0
2019-02-21 11:00:00 0 7254 11.51 9.75 13.03 0 0 0
2019-02-21 12:00:00 0 7254 13.72 12.88 14.61 0 0 0
2019-02-21 13:00:00 0 7274 14.95 14.01 15.45 0 0 0
2019-02-21 14:00:00 0 7226 14.72 13.71 15.62 0 0 0
2019-02-21 15:00:00 0 7246 12.95 12.42 13.72 0 0 0
2019-02-21 16:00:00 0 7148 12.2 11.73 13.69 0 0 0
2019-02-21 17:00:00 0 7030 11.4 10.84 11.78 0 0 0
2019-02-21 18:00:00 0 6952 9.87 9.25 10.62 0 0 0
2019-02-21 19:00:00 0 6922 8.79 7.95 9.41 0 0 0
2019-02-21 20:00:00 0 6922 6.78 6.19 7.52 0 0 0
2019-02-21 21:00:00 0 6904 5.81 4.99 6.71 0 0 0
2019-02-21 22:00:00 0 6884 4.69 3.47 5.51 0 0 0
2019-02-21 23:00:00 0 6894 3.65 3.26 4.11 0 0 0
2019-02-22 00:00:00 0 6864 2.33 1.13 3.28 0 0 0
2019-02-22 01:00:00 0 6844 0.84 0.42 1.32 0 0 0
2019-02-22 02:00:00 0 6844 0.31 -0.47 1.12 0 0 0
2019-02-22 03:00:00 0 6834 -0.7 -1.43 0.32 0 0 0
2019-02-22 04:00:00 0 6834 -1.3 -1.77 -0.86 0 0 0
2019-02-22 05:00:00 0 6826 -1.47 -1.98 -0.96 0 0 0
2019-02-22 06:00:00 0 6826 -1.33 -1.67 -0.6 0 0 0
2019-02-22 07:00:00 0 6826 -0.42 -1.11 0.36 0 0 0
2019-02-22 08:00:00 0 6854 1.11 0.51 1.84 0 0 0
2019-02-22 09:00:00 0 6932 2.49 1.92 3.19 0 0 0
2019-02-22 10:00:00 0 7254 4.78 3.21 6.24 0 0 0
2019-02-22 11:00:00 0 7236 7.31 6.64 7.82 0 0 0
2019-02-22 12:00:00 0 7264 7.1 6.61 8.15 0 0 0
2019-02-22 13:00:00 0 7254 6.33 5.95 6.75 0 0 0
2019-02-22 14:00:00 0.2 7196 6.14 5.71 6.56 0 0 0
2019-02-22 15:00:00 0.4 7088 5.01 4.67 5.47 0 0 0
2019-02-22 16:00:00 1.2 7000 4.25 2.06 4.62 0 0 0
2019-02-22 17:00:00 0.6 6914 1.1 0.32 1.86 0 0 0
2019-02-22 18:00:00 0 6874 -0.2 -0.74 0.23 0 0 0
2019-02-22 19:00:00 0 6854 -0.92 -1.08 -0.66 0 0 0
2019-02-22 20:00:00 0 6844 -1.39 -1.71 -1.05 0 0 0
2019-02-22 21:00:00 0 6826 -2.47 -2.83 -1.95 0 0 0
2019-02-22 22:00:00 0 6816 -2.42 -2.55 -2.26 0 0 0
2019-02-22 23:00:00 0 6816 -2.54 -2.8 -2.34 0 0 0